Time;durP1;ratioP1;P1;durP2;ratioP2;P2;SDS_P1;SDS_P2;PMS_P1;PMS_P2;Temp;Humidity;BMP_temperature;BMP_pressure;BME280_temperature;BME280_humidity;BME280_pressure;Samples;Min_cycle;Max_cycle;Signal;HPM_P1;HPM_P2
2023/04/07 00:00:56;;;;;;;;;0.00;0.00;;;;;20.25;34.72;101208.31;5079375;28;49297;-60
2023/04/07 00:03:22;;;;;;;;;0.00;0.00;;;;;20.23;34.76;101212.81;5078701;28;46142;-61
2023/04/07 00:05:47;;;;;;;;;0.00;0.00;;;;;20.25;35.10;101221.47;5091175;28;45323;-60
2023/04/07 00:08:13;;;;;;;;;0.00;0.00;;;;;20.24;34.86;101218.00;5086678;28;45247;-52
2023/04/07 00:10:38;;;;;;;;;0.00;0.00;;;;;20.23;35.03;101218.06;5078878;28;45268;-60
2023/04/07 00:13:04;;;;;;;;;0.00;0.00;;;;;20.24;34.89;101220.66;5081327;28;46208;-57
2023/04/07 00:15:29;;;;;;;;;0.00;0.00;;;;;20.22;34.59;101216.38;5100998;28;45234;-50
2023/04/07 00:17:55;;;;;;;;;1.00;1.00;;;;;20.23;34.72;101210.16;5092748;28;45256;-56
2023/04/07 00:20:20;;;;;;;;;1.00;1.00;;;;;20.21;34.93;101210.25;5062375;28;45400;-54
2023/04/07 00:22:45;;;;;;;;;0.00;0.00;;;;;20.23;35.16;101220.69;5078689;28;46433;-45
2023/04/07 00:25:11;;;;;;;;;0.25;0.25;;;;;20.20;34.63;101212.97;5078633;28;45300;-48
2023/04/07 00:27:36;;;;;;;;;0.00;0.00;;;;;20.21;34.70;101209.41;5078452;28;45448;-49
2023/04/07 00:30:03;;;;;;;;;0.00;0.00;;;;;20.20;35.26;101213.81;5077639;28;56140;-49
2023/04/07 00:32:28;;;;;;;;;0.25;0.25;;;;;20.19;34.68;101209.47;5078296;28;46269;-57
2023/04/07 00:34:53;;;;;;;;;0.00;0.00;;;;;20.17;34.69;101213.09;5078330;28;45464;-51
2023/04/07 00:37:18;;;;;;;;;1.00;1.00;;;;;20.16;34.85;101206.13;5076750;28;56332;-55
2023/04/07 00:39:45;;;;;;;;;2.00;0.00;;;;;20.16;35.15;101211.41;5078525;28;45539;-48
2023/04/07 00:42:10;;;;;;;;;0.00;0.00;;;;;20.17;34.91;101202.59;5077190;28;46767;-54
2023/04/07 00:44:35;;;;;;;;;0.50;0.00;;;;;20.16;35.09;101195.59;5078229;28;45464;-54
2023/04/07 00:47:01;;;;;;;;;0.00;0.00;;;;;20.14;34.74;101192.19;5078938;28;45313;-48
2023/04/07 00:49:30;;;;;;;;;1.00;0.00;;;;;20.13;34.73;101191.34;5078705;28;45243;-51
2023/04/07 00:51:57;;;;;;;;;0.00;0.00;;;;;20.14;35.16;101189.56;5059635;28;48069;-51
2023/04/07 00:54:23;;;;;;;;;0.00;0.00;;;;;20.13;34.96;101190.47;5080978;28;45294;-45
2023/04/07 00:56:48;;;;;;;;;0.00;0.00;;;;;20.12;34.98;101194.91;5088278;28;45313;-52
2023/04/07 00:59:14;;;;;;;;;0.00;0.00;;;;;20.12;35.20;101194.06;5084326;28;45354;-55
2023/04/07 01:01:47;;;;;;;;;0.00;0.00;;;;;20.11;35.32;101197.63;5083129;28;45520;-61
2023/04/07 01:04:27;;;;;;;;;2.75;0.00;;;;;20.10;35.43;101199.38;5087902;28;45347;-61
2023/04/07 01:06:57;;;;;;;;;1.00;1.00;;;;;20.08;35.24;101199.47;5081741;28;45425;-61
2023/04/07 01:09:29;;;;;;;;;1.00;1.00;;;;;20.07;35.31;101186.38;5095538;28;45294;-54
2023/04/07 01:12:26;;;;;;;;;0.75;0.00;;;;;20.08;35.20;101190.72;5101744;28;45605;-57
2023/04/07 01:14:57;;;;;;;;;2.00;0.00;;;;;20.06;35.44;101188.16;5078838;28;45874;-47
2023/04/07 01:17:24;;;;;;;;;0.75;0.00;;;;;20.06;34.89;101198.69;5077614;28;45396;-62
2023/04/07 01:20:02;;;;;;;;;0.00;0.00;;;;;20.07;35.33;101189.00;5059814;28;45412;-61
2023/04/07 01:22:35;;;;;;;;;0.00;0.00;;;;;20.06;35.19;101190.78;5078214;28;46061;-61
2023/04/07 01:25:38;;;;;;;;;0.75;0.00;;;;;20.06;35.38;101190.78;5068560;28;45689;-58
2023/04/07 01:28:40;;;;;;;;;0.25;0.00;;;;;20.04;35.64;101182.13;5088308;28;44789;-54
2023/04/07 01:31:09;;;;;;;;;0.00;0.00;;;;;20.05;35.07;101191.72;5069271;28;45488;-54
2023/04/07 01:33:36;;;;;;;;;2.00;0.50;;;;;20.03;35.62;101193.56;5072105;28;46603;-45
2023/04/07 01:36:03;;;;;;;;;1.00;0.00;;;;;20.02;35.39;101189.22;5082023;28;45396;-53
2023/04/07 01:38:29;;;;;;;;;1.00;0.75;;;;;20.04;35.82;101191.81;5083715;28;45534;-52
2023/04/07 01:40:57;;;;;;;;;1.75;0.00;;;;;20.03;35.33;101190.94;5092228;28;45504;-54
2023/04/07 01:43:24;;;;;;;;;1.50;0.25;;;;;20.01;35.59;101195.41;5093759;28;46313;-61
2023/04/07 01:45:51;;;;;;;;;0.00;0.00;;;;;20.02;35.28;101199.75;5078083;28;45247;-50
2023/04/07 01:48:17;;;;;;;;;1.00;0.00;;;;;20.02;35.15;101201.53;5077925;28;45463;-56
2023/04/07 01:50:45;;;;;;;;;0.50;0.50;;;;;20.02;35.48;101199.75;5078221;28;45433;-58
2023/04/07 01:53:11;;;;;;;;;0.00;0.00;;;;;20.01;35.53;101191.94;5080129;28;46345;-60
2023/04/07 01:55:36;;;;;;;;;0.75;0.00;;;;;20.01;35.08;101194.56;5082252;28;45185;-54
2023/04/07 01:58:06;;;;;;;;;1.00;1.00;;;;;19.99;35.41;101192.03;5081461;28;45315;-52
2023/04/07 02:00:33;;;;;;;;;1.00;1.00;;;;;19.99;35.67;101194.66;5097491;28;45512;-58
2023/04/07 02:03:06;;;;;;;;;2.00;0.50;;;;;19.98;35.53;101189.44;5102635;28;46084;-58
2023/04/07 02:05:35;;;;;;;;;1.25;0.00;;;;;19.99;35.40;101194.66;5096994;28;45431;-57
2023/04/07 02:08:04;;;;;;;;;0.75;0.75;;;;;19.98;35.88;101200.84;5084540;28;45389;-53
2023/04/07 02:10:33;;;;;;;;;1.75;0.00;;;;;19.96;35.49;101194.78;5096088;28;44963;-59
2023/04/07 02:13:02;;;;;;;;;0.25;0.25;;;;;19.97;35.61;101196.50;5084209;28;45494;-47
2023/04/07 02:15:30;;;;;;;;;0.25;0.00;;;;;19.96;35.56;101201.81;5081491;28;45430;-46
2023/04/07 02:17:58;;;;;;;;;0.00;0.00;;;;;19.97;35.78;101201.75;5080505;28;45442;-58
2023/04/07 02:20:23;;;;;;;;;0.50;0.00;;;;;19.96;36.01;101200.06;5061862;28;45609;-60
2023/04/07 02:22:49;;;;;;;;;0.00;0.00;;;;;19.94;35.59;101201.91;5080249;28;45563;-61
2023/04/07 02:25:23;;;;;;;;;0.00;0.00;;;;;19.95;36.10;101208.88;5080500;28;45443;-58
2023/04/07 02:27:48;;;;;;;;;0.50;0.00;;;;;19.93;36.06;101206.31;5083628;28;45396;-58
2023/04/07 02:30:14;;;;;;;;;1.00;0.75;;;;;19.93;35.86;101205.44;5099202;28;45576;-58
2023/04/07 02:32:40;;;;;;;;;3.00;0.00;;;;;19.90;35.60;101209.09;5104343;27;46765;-44
2023/04/07 02:35:05;;;;;;;;;1.00;1.00;;;;;19.91;36.01;101200.28;5102855;27;45231;-54
2023/04/07 02:37:30;;;;;;;;;0.00;0.00;;;;;19.92;35.59;101209.00;5081020;28;45374;-54
2023/04/07 02:39:56;;;;;;;;;1.00;1.00;;;;;19.91;36.05;101205.53;5083226;28;50339;-49
2023/04/07 02:42:21;;;;;;;;;1.50;0.00;;;;;19.91;35.44;101202.91;5080450;28;47062;-50
2023/04/07 02:44:46;;;;;;;;;0.33;0.00;;;;;19.91;35.81;101204.66;5081827;28;55425;-53
2023/04/07 02:47:12;;;;;;;;;0.25;0.25;;;;;19.90;35.79;101202.94;5100430;28;45415;-56
2023/04/07 02:49:37;;;;;;;;;0.00;0.00;;;;;19.89;35.58;101196.84;5088132;28;45160;-53
2023/04/07 02:52:03;;;;;;;;;1.00;1.00;;;;;19.90;35.70;101198.56;5083051;28;73483;-51
2023/04/07 02:54:28;;;;;;;;;1.25;0.25;;;;;19.91;35.88;101196.78;5084263;28;45343;-48
2023/04/07 02:56:53;;;;;;;;;0.00;0.00;;;;;19.88;35.95;101192.50;5081194;28;64062;-55
2023/04/07 02:59:18;;;;;;;;;0.25;0.25;;;;;19.88;35.98;101186.41;5082758;28;45199;-49
2023/04/07 03:01:44;;;;;;;;;0.00;0.00;;;;;19.88;35.85;101191.66;5096211;28;45219;-60
2023/04/07 03:04:09;;;;;;;;;0.00;0.00;;;;;19.88;35.78;101191.66;5090290;28;45208;-61
2023/04/07 03:06:35;;;;;;;;;0.00;0.00;;;;;19.89;36.33;101193.38;5080129;28;62132;-59
2023/04/07 03:09:00;;;;;;;;;0.75;0.25;;;;;19.88;36.28;101191.66;5080356;28;45497;-60
2023/04/07 03:11:26;;;;;;;;;0.00;0.00;;;;;19.86;36.07;101190.88;5079671;28;45986;-58
2023/04/07 03:13:51;;;;;;;;;0.25;0.25;;;;;19.86;36.26;101188.25;5079108;28;45685;-60
2023/04/07 03:16:16;;;;;;;;;2.00;1.00;;;;;19.87;36.29;101187.34;5083730;28;45962;-59
2023/04/07 03:18:42;;;;;;;;;2.00;1.00;;;;;19.86;36.40;101183.84;5090127;28;45614;-48
2023/04/07 03:21:07;;;;;;;;;0.00;0.00;;;;;19.86;35.95;101189.09;5083929;28;46017;-48
2023/04/07 03:23:32;;;;;;;;;1.00;1.00;;;;;19.86;36.22;101188.25;5079002;28;65040;-57
2023/04/07 03:25:57;;;;;;;;;0.00;0.00;;;;;19.88;36.15;101196.94;5079508;28;45413;-52
2023/04/07 03:28:23;;;;;;;;;0.00;0.00;;;;;19.87;35.76;101193.44;5061771;28;45370;-59
2023/04/07 03:30:48;;;;;;;;;0.00;0.00;;;;;19.86;36.35;101188.25;5078993;28;50655;-59
2023/04/07 03:33:14;;;;;;;;;0.33;0.33;;;;;19.85;36.17;101186.50;5078592;28;58845;-58
2023/04/07 03:35:40;;;;;;;;;2.00;1.00;;;;;19.85;36.29;101194.41;5080101;28;45514;-58
2023/04/07 03:38:05;;;;;;;;;1.00;1.00;;;;;19.85;36.36;101189.16;5085100;28;45317;-61
2023/04/07 03:40:32;;;;;;;;;0.00;0.00;;;;;19.85;36.02;101191.78;5100348;28;59067;-56
2023/04/07 03:42:57;;;;;;;;;0.00;0.00;;;;;19.85;36.20;101194.41;5093047;28;45346;-58
2023/04/07 03:45:23;;;;;;;;;0.75;0.75;;;;;19.84;35.76;101201.47;5065231;28;45256;-61
2023/04/07 03:47:48;;;;;;;;;1.00;1.00;;;;;19.84;36.49;101193.56;5079781;28;60741;-61
2023/04/07 03:50:13;;;;;;;;;1.00;1.00;;;;;19.85;36.46;101202.31;5080872;28;46152;-59
2023/04/07 03:52:39;;;;;;;;;1.00;1.00;;;;;19.81;36.09;101190.19;5080192;28;45310;-61
2023/04/07 03:55:04;;;;;;;;;0.75;0.00;;;;;19.86;36.28;101198.78;5079905;28;45283;-61
2023/04/07 03:57:30;;;;;;;;;3.00;0.25;;;;;19.85;35.94;101197.03;5080936;28;45157;-61
2023/04/07 03:59:55;;;;;;;;;0.00;0.00;;;;;19.85;36.56;101197.88;5064282;28;57510;-60
2023/04/07 04:02:21;;;;;;;;;1.50;1.00;;;;;19.83;36.11;101188.34;5090535;28;45263;-56
2023/04/07 04:04:46;;;;;;;;;0.00;0.00;;;;;19.84;36.03;101193.56;5090851;28;45329;-51
2023/04/07 04:07:11;;;;;;;;;0.25;0.25;;;;;19.85;35.93;101195.25;5092684;28;45011;-60
2023/04/07 04:09:36;;;;;;;;;0.50;0.50;;;;;19.84;36.15;101187.44;5080420;28;46298;-55
2023/04/07 04:12:02;;;;;;;;;1.00;1.00;;;;;19.84;36.44;101195.31;5078846;28;58618;-60
2023/04/07 04:14:27;;;;;;;;;0.00;0.00;;;;;19.82;36.38;101197.16;5079439;28;45249;-57
2023/04/07 04:16:53;;;;;;;;;0.00;0.00;;;;;19.83;36.43;101201.50;5079141;28;45452;-58
2023/04/07 04:19:18;;;;;;;;;0.00;0.00;;;;;19.84;36.49;101205.84;5078007;28;46417;-60
2023/04/07 04:21:45;;;;;;;;;0.00;0.00;;;;;19.84;36.51;101221.63;5078919;28;45781;-61
2023/04/07 04:24:10;;;;;;;;;0.00;0.00;;;;;19.83;35.80;101207.63;5079241;28;45637;-61
2023/04/07 04:26:35;;;;;;;;;0.25;0.25;;;;;19.83;36.20;101220.78;5087527;28;45857;-61
2023/04/07 04:29:02;;;;;;;;;1.25;1.00;;;;;19.83;36.18;101210.28;5085482;28;50626;-59
2023/04/07 04:31:27;;;;;;;;;0.00;0.00;;;;;19.82;36.57;101220.84;5067861;28;45236;-61
2023/04/07 04:33:52;;;;;;;;;0.00;0.00;;;;;19.82;35.95;101223.47;5090565;28;51015;-60
2023/04/07 04:36:18;;;;;;;;;0.50;0.00;;;;;19.80;36.55;101223.56;5092150;28;45305;-55
2023/04/07 04:38:43;;;;;;;;;1.25;1.00;;;;;19.80;36.42;101225.31;5081665;28;45320;-61
2023/04/07 04:41:08;;;;;;;;;2.00;0.50;;;;;19.79;36.15;101229.75;5093594;28;45401;-60
2023/04/07 04:43:34;;;;;;;;;0.00;0.00;;;;;19.80;36.21;101227.94;5097520;27;44714;-52
2023/04/07 04:45:59;;;;;;;;;0.00;0.00;;;;;19.78;36.07;101233.28;5078755;28;45325;-60
2023/04/07 04:48:25;;;;;;;;;2.00;0.00;;;;;19.77;36.37;101228.94;5059183;28;47433;-56
2023/04/07 04:50:50;;;;;;;;;0.00;0.00;;;;;19.77;36.56;101235.06;5078232;28;45333;-58
2023/04/07 04:53:15;;;;;;;;;0.25;0.25;;;;;19.78;36.43;101244.69;5077386;28;45289;-56
2023/04/07 04:55:45;;;;;;;;;0.50;0.00;;;;;19.77;36.16;101239.47;5077601;28;45149;-62
2023/04/07 04:58:11;;;;;;;;;1.00;0.00;;;;;19.76;36.72;101236.00;5082763;28;46685;-61
2023/04/07 05:00:36;;;;;;;;;0.50;0.50;;;;;19.76;36.48;101236.00;5098657;28;44805;-61
2023/04/07 05:03:02;;;;;;;;;0.00;0.00;;;;;19.77;36.46;101237.72;5090706;28;45270;-58
2023/04/07 05:05:27;;;;;;;;;2.50;0.00;;;;;19.77;36.56;101236.84;5081184;28;45428;-50
2023/04/07 05:07:53;;;;;;;;;1.50;1.00;;;;;19.76;36.37;101243.88;5097405;28;47510;-45
2023/04/07 05:10:18;;;;;;;;;0.00;0.00;;;;;19.76;36.18;101246.53;5076467;28;63315;-46
2023/04/07 05:12:43;;;;;;;;;0.50;0.50;;;;;19.76;36.79;101246.53;5077281;28;45221;-50
2023/04/07 05:15:09;;;;;;;;;1.00;1.00;;;;;19.75;36.19;101242.19;5077467;28;45345;-45
2023/04/07 05:17:35;;;;;;;;;0.00;0.00;;;;;19.75;36.18;101243.94;5076808;28;46074;-61
2023/04/07 05:20:00;;;;;;;;;1.75;0.00;;;;;19.74;36.20;101244.84;5076852;28;45205;-60
2023/04/07 05:22:25;;;;;;;;;0.75;0.75;;;;;19.74;36.18;101244.84;5085045;28;45235;-60
2023/04/07 05:24:51;;;;;;;;;0.50;0.25;;;;;19.74;36.18;101240.47;5083760;28;45220;-48
2023/04/07 05:27:16;;;;;;;;;0.25;0.00;;;;;19.74;36.43;101242.22;5093019;27;47801;-60
2023/04/07 05:29:41;;;;;;;;;1.00;1.00;;;;;19.72;36.66;101238.84;5077124;28;45459;-59
2023/04/07 05:32:06;;;;;;;;;0.67;0.00;;;;;19.72;36.63;101234.41;5076166;28;58814;-57
2023/04/07 05:34:32;;;;;;;;;1.00;0.00;;;;;19.72;36.73;101244.09;5077235;28;45587;-57
2023/04/07 05:36:57;;;;;;;;;1.25;0.75;;;;;19.71;36.80;101242.41;5095953;28;46894;-52
2023/04/07 05:39:23;;;;;;;;;0.50;0.00;;;;;19.71;36.30;101240.59;5092266;28;48624;-46
2023/04/07 05:41:48;;;;;;;;;3.00;1.00;;;;;19.70;36.56;101252.03;5076086;28;45414;-46
2023/04/07 05:44:13;;;;;;;;;1.00;0.67;;;;;19.69;36.56;101250.34;5076163;28;53246;-48
2023/04/07 05:46:39;;;;;;;;;0.00;0.00;;;;;19.68;36.35;101248.63;5075550;28;69531;-48
2023/04/07 05:49:04;;;;;;;;;1.25;1.00;;;;;19.69;36.33;101247.69;5075515;28;45267;-48
2023/04/07 05:51:30;;;;;;;;;1.75;0.75;;;;;19.70;36.76;101252.03;5076463;28;45412;-56
2023/04/07 05:53:55;;;;;;;;;9.75;9.25;;;;;19.70;36.49;101246.78;5076523;28;45441;-52
2023/04/07 05:56:21;;;;;;;;;24.00;22.50;;;;;19.71;36.93;101251.13;5076476;28;46066;-48
2023/04/07 05:58:46;;;;;;;;;48.50;40.75;;;;;19.72;36.84;101254.63;5077041;28;45367;-51
2023/04/07 06:01:11;;;;;;;;;75.50;64.75;;;;;19.71;36.43;101253.75;5082508;28;45322;-53
2023/04/07 06:03:37;;;;;;;;;94.33;89.33;;;;;19.72;36.43;101260.72;5092006;28;45310;-60
2023/04/07 06:06:03;;;;;;;;;112.75;106.00;;;;;19.72;36.74;101252.84;5076395;28;46996;-59
2023/04/07 06:08:28;;;;;;;;;122.25;113.25;;;;;19.73;36.41;101262.44;5096282;28;45238;-57
2023/04/07 06:10:55;;;;;;;;;121.67;113.00;;;;;19.72;37.12;101263.34;5101341;28;45215;-49
2023/04/07 06:13:20;;;;;;;;;134.25;126.75;;;;;19.74;36.38;101268.53;5076619;28;45473;-51
2023/04/07 06:15:45;;;;;;;;;144.00;134.33;;;;;19.74;36.38;101266.78;5075997;28;46121;-49
2023/04/07 06:18:11;;;;;;;;;139.33;131.33;;;;;19.73;36.52;101265.06;5077132;28;51066;-53
2023/04/07 06:20:36;;;;;;;;;142.33;131.00;;;;;19.73;36.39;101265.06;5078854;28;49579;-59
2023/04/07 06:23:01;;;;;;;;;129.00;122.33;;;;;19.72;37.07;101265.13;5079835;28;45307;-55
2023/04/07 06:25:27;;;;;;;;;131.33;125.33;;;;;19.73;36.45;101280.00;5075265;28;58736;-57
2023/04/07 06:27:54;;;;;;;;;120.75;111.75;;;;;19.71;36.81;101272.16;5076442;28;45333;-54
2023/04/07 06:30:19;;;;;;;;;125.75;121.50;;;;;19.73;36.50;101283.47;5078149;28;45374;-53
2023/04/07 06:32:45;;;;;;;;;116.67;110.00;;;;;19.76;36.63;101293.88;5092431;28;45318;-55
2023/04/07 06:35:10;;;;;;;;;120.25;114.00;;;;;19.80;36.46;101301.59;5077491;28;45522;-47
2023/04/07 06:37:36;;;;;;;;;122.00;118.67;;;;;19.82;37.24;101294.50;5082242;28;45495;-51
2023/04/07 06:40:01;;;;;;;;;130.33;120.33;;;;;19.81;36.88;101293.66;5091051;28;45337;-58
2023/04/07 06:42:26;;;;;;;;;123.33;114.33;;;;;19.83;37.14;101298.84;5088209;28;45342;-56
2023/04/07 06:44:52;;;;;;;;;108.00;104.67;;;;;19.82;37.13;101302.38;5091423;28;46110;-58
2023/04/07 06:47:17;;;;;;;;;126.33;116.67;;;;;19.84;36.95;101313.69;5093966;28;45266;-58
2023/04/07 06:49:42;;;;;;;;;116.00;110.67;;;;;19.83;37.01;101310.22;5083953;28;45202;-58
2023/04/07 06:52:08;;;;;;;;;122.00;112.33;;;;;19.84;37.02;101311.94;5082534;28;45485;-57
2023/04/07 06:54:33;;;;;;;;;111.33;105.33;;;;;19.85;36.75;101316.25;5081842;28;45978;-59
2023/04/07 06:56:58;;;;;;;;;113.00;105.33;;;;;19.85;36.64;101324.13;5092144;28;45275;-56
2023/04/07 06:59:24;;;;;;;;;100.00;94.33;;;;;19.86;36.70;101319.78;5098007;28;45221;-50
2023/04/07 07:01:49;;;;;;;;;104.25;95.50;;;;;19.86;36.53;101319.78;5081994;28;45473;-53
2023/04/07 07:04:14;;;;;;;;;107.00;98.00;;;;;19.86;36.69;101325.88;5079060;28;68135;-53
2023/04/07 07:06:40;;;;;;;;;95.33;90.67;;;;;19.87;36.70;101330.22;5079597;28;45211;-48
2023/04/07 07:09:05;;;;;;;;;101.33;96.00;;;;;19.87;36.53;101332.00;5079911;28;45320;-50
2023/04/07 07:11:30;;;;;;;;;91.33;87.00;;;;;19.86;36.63;101325.88;5094141;28;60968;-48
2023/04/07 07:13:56;;;;;;;;;90.00;86.67;;;;;19.87;36.43;101327.59;5098189;28;46066;-48
2023/04/07 07:16:22;;;;;;;;;90.67;88.00;;;;;19.87;36.58;101327.59;5082208;28;54354;-57
2023/04/07 07:18:48;;;;;;;;;87.50;83.25;;;;;19.88;36.58;101333.72;5081223;28;45330;-59
2023/04/07 07:21:14;;;;;;;;;91.25;83.25;;;;;19.88;36.82;101333.72;5079388;28;45386;-59
2023/04/07 07:23:39;;;;;;;;;88.75;81.00;;;;;19.87;36.43;101334.63;5079144;28;46887;-59
2023/04/07 07:26:04;;;;;;;;;83.00;74.67;;;;;19.88;36.48;101341.63;5078487;28;54008;-59
2023/04/07 07:28:30;;;;;;;;;80.00;73.00;;;;;19.89;36.54;101345.97;5078203;28;45334;-63
2023/04/07 07:30:55;;;;;;;;;81.33;76.00;;;;;19.89;36.95;101343.31;5079533;28;45377;-59
2023/04/07 07:33:21;;;;;;;;;66.33;53.33;;;;;19.89;36.81;101345.97;5080427;28;46352;-59
2023/04/07 07:35:47;;;;;;;;;66.50;52.50;;;;;19.88;36.39;101352.13;5101254;28;44937;-56
2023/04/07 07:38:12;;;;;;;;;67.25;55.00;;;;;19.86;36.47;101348.72;5080910;28;45259;-57
2023/04/07 07:40:38;;;;;;;;;66.67;54.33;;;;;19.85;36.76;101350.44;5078085;28;47921;-54
2023/04/07 07:43:03;;;;;;;;;65.33;52.00;;;;;19.86;36.54;101348.72;5077409;28;59298;-56
2023/04/07 07:45:28;;;;;;;;;66.00;52.33;;;;;19.84;36.53;101348.75;5078188;28;45597;-56
2023/04/07 07:47:54;;;;;;;;;66.33;50.67;;;;;19.82;36.99;101349.72;5078062;28;48608;-59
2023/04/07 07:50:19;;;;;;;;;65.75;51.50;;;;;19.84;36.84;101347.88;5077661;28;45551;-57
2023/04/07 07:52:45;;;;;;;;;60.50;47.25;;;;;19.84;36.97;101354.03;5075963;28;46332;-55
2023/04/07 07:55:10;;;;;;;;;62.75;51.75;;;;;19.84;37.28;101354.03;5076870;28;45437;-57
2023/04/07 07:57:35;;;;;;;;;63.50;50.50;;;;;19.87;37.39;101358.31;5078700;28;45387;-59
2023/04/07 08:00:02;;;;;;;;;65.33;50.00;;;;;19.88;36.94;101358.25;5077844;28;60990;-58
2023/04/07 08:02:30;;;;;;;;;63.50;49.50;;;;;19.91;37.22;101359.88;5079137;28;46231;-58
2023/04/07 08:04:59;;;;;;;;;59.25;47.25;;;;;19.91;37.01;101350.22;5095157;28;45140;-60
2023/04/07 08:07:26;;;;;;;;;58.75;47.50;;;;;19.95;37.12;101360.63;5078483;28;45294;-60
2023/04/07 08:09:51;;;;;;;;;59.50;46.25;;;;;19.96;37.10;101371.06;5078393;28;45361;-59
2023/04/07 08:12:16;;;;;;;;;55.75;45.50;;;;;19.97;37.19;101367.50;5078132;28;46013;-58
2023/04/07 08:14:42;;;;;;;;;56.00;45.33;;;;;19.98;37.29;101371.84;5077872;28;45404;-54
2023/04/07 08:17:07;;;;;;;;;58.33;46.00;;;;;19.99;36.74;101372.69;5060240;28;45379;-54
2023/04/07 08:19:32;;;;;;;;;55.75;45.50;;;;;19.99;37.10;101370.94;5079662;28;45414;-59
2023/04/07 08:21:58;;;;;;;;;53.50;44.50;;;;;19.99;37.17;101368.31;5093300;28;45310;-52
2023/04/07 08:24:23;;;;;;;;;52.00;43.67;;;;;20.03;36.92;101375.13;5078285;28;63071;-59
2023/04/07 08:26:48;;;;;;;;;51.67;43.00;;;;;20.04;36.84;101374.19;5077181;28;53169;-59
2023/04/07 08:29:14;;;;;;;;;49.25;41.50;;;;;20.04;36.75;101368.94;5077552;28;45336;-61
2023/04/07 08:31:40;;;;;;;;;46.50;40.50;;;;;20.05;36.70;101367.16;5077343;28;45494;-53
2023/04/07 08:34:05;;;;;;;;;52.00;42.50;;;;;20.05;36.87;101362.75;5077490;28;45385;-52
2023/04/07 08:36:31;;;;;;;;;52.25;44.50;;;;;20.05;37.14;101373.28;5080469;28;45268;-59
2023/04/07 08:38:57;;;;;;;;;50.50;41.25;;;;;20.05;37.06;101369.81;5086729;28;45272;-59
2023/04/07 08:41:40;;;;;;;;;47.25;39.00;;;;;20.07;36.69;101373.19;5084258;28;46282;-59
2023/04/07 08:44:09;;;;;;;;;35.50;30.00;;;;;20.06;36.79;101369.72;5079398;28;45351;-61
2023/04/07 08:46:37;;;;;;;;;42.25;35.50;;;;;20.05;36.99;101378.53;5082363;28;45278;-60
2023/04/07 08:49:12;;;;;;;;;46.25;38.50;;;;;20.05;37.12;101373.28;5080127;28;45429;-60
2023/04/07 08:51:48;;;;;;;;;46.75;38.00;;;;;20.06;37.10;101369.72;5077522;28;46675;-58
2023/04/07 08:54:15;;;;;;;;;46.75;35.50;;;;;20.06;36.74;101377.63;5078447;28;45239;-59
2023/04/07 08:56:42;;;;;;;;;35.25;33.25;;;;;20.07;37.17;101381.09;5081740;28;45363;-60
2023/04/07 08:59:09;;;;;;;;;37.00;32.75;;;;;20.08;37.12;101374.91;5082547;28;45216;-55
2023/04/07 09:01:35;;;;;;;;;27.75;25.50;;;;;20.08;37.13;101375.78;5077210;28;46835;-60
2023/04/07 09:04:03;;;;;;;;;30.00;28.00;;;;;20.06;37.49;101380.25;5076974;28;45845;-58
2023/04/07 09:06:32;;;;;;;;;35.50;30.00;;;;;20.06;36.91;101382.88;5077460;28;45367;-57
2023/04/07 09:08:59;;;;;;;;;35.75;32.00;;;;;20.04;37.54;101392.63;5077616;28;45515;-59
2023/04/07 09:11:26;;;;;;;;;32.25;28.50;;;;;20.04;37.29;101386.50;5076800;28;46987;-59
2023/04/07 09:13:51;;;;;;;;;21.25;18.00;;;;;20.04;36.77;101392.63;5058587;28;45391;-57
2023/04/07 09:16:17;;;;;;;;;16.00;15.50;;;;;20.05;36.60;101390.84;5074934;28;45754;-60
2023/04/07 09:18:43;;;;;;;;;15.75;13.25;;;;;20.02;36.49;101389.19;5077858;28;45722;-59
2023/04/07 09:21:08;;;;;;;;;17.00;14.75;;;;;20.00;36.28;101388.44;5085053;28;46080;-56
2023/04/07 09:23:36;;;;;;;;;13.50;11.50;;;;;19.99;36.26;101393.75;5089089;28;45452;-57
2023/04/07 09:26:26;;;;;;;;;11.50;11.50;;;;;19.96;36.26;101384.22;5084045;28;45300;-55
2023/04/07 09:28:58;;;;;;;;;11.25;11.00;;;;;19.95;35.98;101390.41;5084532;28;44828;-52
2023/04/07 09:31:45;;;;;;;;;9.00;8.75;;;;;19.91;36.05;101396.69;5066281;28;46959;-50
2023/04/07 09:34:22;;;;;;;;;10.00;9.00;;;;;19.91;35.60;101397.56;5067800;28;45325;-58
2023/04/07 09:36:48;;;;;;;;;8.25;8.25;;;;;19.89;35.70;101398.56;5082786;28;45345;-56
2023/04/07 09:39:13;;;;;;;;;8.75;8.00;;;;;19.87;35.43;101393.34;5085256;28;45314;-50
2023/04/07 09:41:38;;;;;;;;;7.67;6.00;;;;;19.86;35.58;101394.28;5085759;28;68685;-52
2023/04/07 09:44:04;;;;;;;;;7.25;6.75;;;;;19.84;35.82;101392.59;5082674;28;48652;-49
2023/04/07 09:46:29;;;;;;;;;8.75;7.00;;;;;19.81;35.56;101395.38;5080410;28;45284;-48
2023/04/07 09:49:04;;;;;;;;;6.50;6.00;;;;;19.80;35.75;101386.63;5082192;28;45556;-47
2023/04/07 09:51:29;;;;;;;;;9.00;7.50;;;;;19.77;35.69;101395.53;5078434;28;46803;-57
2023/04/07 09:53:54;;;;;;;;;5.50;5.00;;;;;19.75;35.74;101397.34;5078076;28;45295;-57
2023/04/07 09:56:21;;;;;;;;;8.00;5.67;;;;;19.72;35.58;101397.47;5075769;28;58816;-58
2023/04/07 09:58:50;;;;;;;;;4.50;4.50;;;;;19.70;35.16;101391.41;5076708;28;45457;-55
2023/04/07 10:01:16;;;;;;;;;4.00;4.00;;;;;19.66;35.32;101384.59;5076631;28;46589;-59
2023/04/07 10:03:42;;;;;;;;;5.50;3.00;;;;;19.67;35.38;101391.56;5076857;28;45336;-59
2023/04/07 10:06:08;;;;;;;;;8.00;4.25;;;;;19.66;34.89;101387.25;5078886;28;45420;-62
2023/04/07 10:08:36;;;;;;;;;7.25;4.50;;;;;19.66;34.53;101381.97;5083055;28;45479;-55
2023/04/07 10:11:02;;;;;;;;;6.75;4.00;;;;;19.67;34.82;101385.44;5085777;28;45447;-60
2023/04/07 10:13:29;;;;;;;;;6.00;4.00;;;;;19.68;34.96;101387.16;5059466;28;45847;-56
2023/04/07 10:15:56;;;;;;;;;3.00;3.00;;;;;19.69;34.73;101389.72;5080054;28;45211;-59
2023/04/07 10:18:24;;;;;;;;;4.50;3.00;;;;;19.69;34.87;101392.34;5080204;28;45384;-49
2023/04/07 10:20:52;;;;;;;;;4.00;3.00;;;;;19.70;35.12;101388.78;5084767;28;45483;-52
2023/04/07 10:23:21;;;;;;;;;3.00;3.00;;;;;19.70;35.07;101391.41;5082834;28;45283;-49
2023/04/07 10:25:51;;;;;;;;;2.25;2.25;;;;;19.72;34.89;101397.47;5083113;28;45302;-58
2023/04/07 10:28:19;;;;;;;;;1.75;1.75;;;;;19.74;34.98;101390.38;5083391;28;45474;-56
2023/04/07 10:30:47;;;;;;;;;9.50;3.00;;;;;19.79;35.36;101387.56;5086191;28;46285;-47
2023/04/07 10:33:12;;;;;;;;;2.00;1.75;;;;;19.86;35.01;101390.81;5093367;28;45820;-53
2023/04/07 10:36:04;;;;;;;;;2.00;2.00;;;;;19.91;35.26;101392.31;5094983;28;45480;-51
2023/04/07 10:38:30;;;;;;;;;2.75;2.75;;;;;19.99;35.21;101393.75;5087362;28;45219;-56
2023/04/07 10:40:56;;;;;;;;;3.25;2.25;;;;;20.04;35.07;101382.09;5099559;28;46226;-47
2023/04/07 10:43:39;;;;;;;;;4.50;2.00;;;;;20.10;34.98;101394.13;5100824;28;44646;-53
2023/04/07 10:46:05;;;;;;;;;2.25;2.25;;;;;20.15;35.40;101389.53;5085408;28;45401;-53
2023/04/07 10:48:31;;;;;;;;;3.75;2.00;;;;;20.19;34.92;101380.53;5080534;28;45588;-51
2023/04/07 10:51:03;;;;;;;;;4.00;2.00;;;;;20.27;35.18;101379.34;5080396;28;47154;-54
2023/04/07 10:53:28;;;;;;;;;2.00;2.00;;;;;20.32;35.19;101379.97;5073300;28;45775;-58
2023/04/07 10:55:55;;;;;;;;;3.00;1.00;;;;;20.36;34.81;101386.81;5085883;28;51719;-49
2023/04/07 10:58:27;;;;;;;;;1.00;1.00;;;;;20.41;34.95;101386.63;5080788;28;45550;-58
2023/04/07 11:00:59;;;;;;;;;4.00;1.25;;;;;20.43;34.63;101377.72;5079584;28;46502;-59
2023/04/07 11:03:25;;;;;;;;;2.00;2.00;;;;;20.45;34.90;101381.13;5080396;28;45321;-59
2023/04/07 11:05:50;;;;;;;;;2.00;2.00;;;;;20.47;34.72;101373.16;5083109;28;45349;-55
2023/04/07 11:08:35;;;;;;;;;1.25;1.25;;;;;20.48;35.11;101375.72;5102186;28;44784;-56
2023/04/07 11:11:01;;;;;;;;;1.75;1.75;;;;;20.50;35.04;101378.28;5095150;28;46201;-59
2023/04/07 11:13:26;;;;;;;;;1.75;1.50;;;;;20.51;34.99;101377.38;5080586;28;45419;-60
2023/04/07 11:15:52;;;;;;;;;3.00;2.00;;;;;20.53;35.09;101381.63;5080261;28;45475;-59
2023/04/07 11:18:19;;;;;;;;;2.00;2.00;;;;;20.53;35.13;101384.25;5082593;28;45537;-56